createdAt,value
2023-02-17T00:01:21.357Z,101660.63
2023-02-17T00:03:49.529Z,101662.88
2023-02-17T00:06:21.166Z,101665.78
2023-02-17T00:08:48.311Z,101657.75
2023-02-17T00:11:16.051Z,101657.09
2023-02-17T00:13:42.916Z,101660.41
2023-02-17T00:16:20.263Z,101668.72
2023-02-17T00:18:47.514Z,101657.25
2023-02-17T00:21:19.298Z,101662.59
2023-02-17T00:23:46.621Z,101644.63
2023-02-17T00:26:14.053Z,101655.13
2023-02-17T00:28:41.035Z,101647.94
2023-02-17T00:31:15.321Z,101649.63
2023-02-17T00:33:42.232Z,101642.50
2023-02-17T00:36:12.414Z,101643.72
2023-02-17T00:38:39.134Z,101649.16
2023-02-17T00:41:05.761Z,101641.16
2023-02-17T00:43:32.372Z,101634.28
2023-02-17T00:45:59.416Z,101646.59
2023-02-17T00:48:25.852Z,101640.69
2023-02-17T00:50:52.257Z,101643.78
2023-02-17T00:53:18.647Z,101630.56
2023-02-17T00:55:45.378Z,101645.97
2023-02-17T00:58:11.959Z,101637.97
2023-02-17T01:00:38.403Z,101647.91
2023-02-17T01:03:05.231Z,101651.94
2023-02-17T01:05:32.241Z,101639.09
2023-02-17T01:07:58.648Z,101639.69
2023-02-17T01:10:25.341Z,101636.06
2023-02-17T01:12:51.686Z,101631.81
2023-02-17T01:15:18.210Z,101627.44
2023-02-17T01:17:44.729Z,101622.72
2023-02-17T01:20:11.676Z,101615.16
2023-02-17T01:22:39.911Z,101611.16
2023-02-17T01:25:06.666Z,101613.59
2023-02-17T01:27:33.124Z,101607.25
2023-02-17T01:29:59.508Z,101605.00
2023-02-17T01:32:25.952Z,101594.69
2023-02-17T01:34:52.356Z,101588.22
2023-02-17T01:37:18.804Z,101592.16
2023-02-17T01:39:45.193Z,101600.31
2023-02-17T01:42:20.683Z,101587.31
2023-02-17T01:45:29.284Z,101589.53
2023-02-17T01:48:01.154Z,101586.13
2023-02-17T01:50:43.547Z,101586.34
2023-02-17T01:53:14.542Z,101587.53
2023-02-17T01:55:42.520Z,101582.09
2023-02-17T01:58:13.536Z,101575.25
2023-02-17T02:00:40.500Z,101574.06
2023-02-17T02:03:09.366Z,101560.47
2023-02-17T02:05:37.735Z,101566.94
2023-02-17T02:08:04.718Z,101568.13
2023-02-17T02:10:31.129Z,101566.50
2023-02-17T02:12:57.644Z,101563.50
2023-02-17T02:15:31.645Z,101566.00
2023-02-17T02:17:58.024Z,101565.19
2023-02-17T02:20:48.567Z,101563.88
2023-02-17T02:23:53.452Z,101560.09
2023-02-17T02:26:48.381Z,101560.31
2023-02-17T02:29:51.850Z,101555.47
2023-02-17T02:32:43.779Z,101558.41
2023-02-17T02:35:27.452Z,101552.97
2023-02-17T02:38:31.485Z,101552.97
2023-02-17T02:41:17.341Z,101545.03
2023-02-17T02:43:43.952Z,101542.59
2023-02-17T02:46:10.596Z,101548.63
2023-02-17T02:48:37.893Z,101551.94
2023-02-17T02:51:18.631Z,101544.09
2023-02-17T02:54:11.911Z,101550.38
2023-02-17T02:56:45.037Z,101542.44
2023-02-17T02:59:35.938Z,101534.50
2023-02-17T03:02:19.268Z,101535.31
2023-02-17T03:04:52.736Z,101542.81
2023-02-17T03:07:28.341Z,101535.69
2023-02-17T03:09:58.847Z,101535.09
2023-02-17T03:12:26.906Z,101522.56
2023-02-17T03:14:59.981Z,101522.31
2023-02-17T03:17:26.519Z,101522.56
2023-02-17T03:19:52.884Z,101528.59
2023-02-17T03:22:31.674Z,101536.53
2023-02-17T03:25:00.118Z,101531.09
2023-02-17T03:27:27.176Z,101524.78
2023-02-17T03:29:53.848Z,101520.44
2023-02-17T03:32:20.598Z,101514.41
2023-02-17T03:34:47.180Z,101517.22
2023-02-17T03:37:13.561Z,101513.91
2023-02-17T03:39:40.176Z,101510.13
2023-02-17T03:42:06.820Z,101514.03
2023-02-17T03:44:33.407Z,101529.78
2023-02-17T03:46:59.916Z,101514.50
2023-02-17T03:49:26.346Z,101516.97
2023-02-17T03:51:52.756Z,101522.19
2023-02-17T03:54:19.189Z,101517.22
2023-02-17T03:56:45.546Z,101520.06
2023-02-17T03:59:11.963Z,101520.06
2023-02-17T04:01:38.402Z,101514.13
2023-02-17T04:04:04.829Z,101505.38
2023-02-17T04:06:31.374Z,101507.03
2023-02-17T04:08:57.811Z,101515.19
2023-02-17T04:11:24.319Z,101512.47
2023-02-17T04:13:50.743Z,101517.94
2023-02-17T04:16:17.487Z,101528.47
2023-02-17T04:18:43.945Z,101529.63
2023-02-17T04:21:10.417Z,101527.16
2023-02-17T04:23:37.899Z,101526.22
2023-02-17T04:26:06.444Z,101528.81
2023-02-17T04:28:33.077Z,101521.69
2023-02-17T04:31:00.203Z,101525.00
2023-02-17T04:33:27.156Z,101526.69
2023-02-17T04:35:59.467Z,101524.19
2023-02-17T04:38:30.793Z,101526.69
2023-02-17T04:40:59.551Z,101530.22
2023-02-17T04:43:27.634Z,101532.94
2023-02-17T04:45:55.104Z,101532.13
2023-02-17T04:48:21.889Z,101522.41
2023-02-17T04:50:48.374Z,101526.22
2023-02-17T04:53:15.061Z,101524.56
2023-02-17T04:55:42.077Z,101523.72
2023-02-17T04:58:09.218Z,101510.94
2023-02-17T05:00:36.313Z,101522.41
2023-02-17T05:03:03.012Z,101502.75
2023-02-17T05:05:29.900Z,101523.22
2023-02-17T05:07:56.377Z,101526.91
2023-02-17T05:10:24.067Z,101508.41
2023-02-17T05:12:50.716Z,101508.41
2023-02-17T05:15:17.216Z,101517.69
2023-02-17T05:17:44.087Z,101516.25
2023-02-17T05:20:11.154Z,101514.38
2023-02-17T05:22:37.561Z,101507.25
2023-02-17T05:25:04.464Z,101525.25
2023-02-17T05:27:31.262Z,101512.22
2023-02-17T05:29:57.673Z,101520.13
2023-02-17T05:32:24.311Z,101524.75
2023-02-17T05:34:50.731Z,101512.22
2023-02-17T05:37:17.278Z,101510.56
2023-02-17T05:39:43.731Z,101503.78
2023-02-17T05:42:10.282Z,101506.50
2023-02-17T05:44:36.894Z,101511.72
2023-02-17T05:47:03.713Z,101493.25
2023-02-17T05:49:30.344Z,101491.25
2023-02-17T05:51:56.765Z,101491.03
2023-02-17T05:54:23.153Z,101507.84
2023-02-17T05:56:49.578Z,101497.53
2023-02-17T05:59:16.342Z,101510.09
2023-02-17T06:01:42.694Z,101507.84
2023-02-17T06:04:09.217Z,101501.81
2023-02-17T06:06:35.778Z,101486.03
2023-02-17T06:09:02.392Z,101489.84
2023-02-17T06:11:28.834Z,101496.13
2023-02-17T06:13:55.224Z,101481.69
2023-02-17T06:16:21.624Z,101494.44
2023-02-17T06:18:48.139Z,101512.59
2023-02-17T06:21:14.700Z,101497.06
2023-02-17T06:23:41.110Z,101502.00
2023-02-17T06:26:07.866Z,101507.13
2023-02-17T06:28:35.184Z,101504.28
2023-02-17T06:31:01.741Z,101505.47
2023-02-17T06:33:28.730Z,101492.78
2023-02-17T06:35:55.144Z,101488.97
2023-02-17T06:38:21.556Z,101495.50
2023-02-17T06:40:48.015Z,101487.81
2023-02-17T06:43:14.473Z,101496.25
2023-02-17T06:45:40.858Z,101503.56
2023-02-17T06:48:07.284Z,101483.44
2023-02-17T06:50:33.890Z,101492.19
2023-02-17T06:53:00.392Z,101491.13
2023-02-17T06:55:26.844Z,101486.25
2023-02-17T06:57:53.188Z,101504.25
2023-02-17T07:00:20.602Z,101498.59
2023-02-17T07:02:47.351Z,101502.72
2023-02-17T07:05:13.913Z,101509.78
2023-02-17T07:07:40.319Z,101493.44
2023-02-17T07:10:07.529Z,101497.38
2023-02-17T07:12:33.951Z,101501.75
2023-02-17T07:15:00.271Z,101498.78
2023-02-17T07:17:26.921Z,101502.44
2023-02-17T07:19:53.301Z,101493.41
2023-02-17T07:22:19.820Z,101498.41
2023-02-17T07:24:46.217Z,101493.28
2023-02-17T07:27:12.598Z,101505.94
2023-02-17T07:29:39.088Z,101504.84
2023-02-17T07:32:05.518Z,101493.00
2023-02-17T07:34:31.927Z,101489.13
2023-02-17T07:36:58.291Z,101495.78
2023-02-17T07:39:24.834Z,101492.72
2023-02-17T07:41:51.240Z,101498.97
2023-02-17T07:44:17.630Z,101497.56
2023-02-17T07:46:44.009Z,101504.06
2023-02-17T07:49:10.991Z,101504.06
2023-02-17T07:51:37.686Z,101500.06
2023-02-17T07:54:04.274Z,101503.59
2023-02-17T07:56:30.861Z,101503.09
2023-02-17T07:58:57.249Z,101507.00
2023-02-17T08:01:25.325Z,101508.66
2023-02-17T08:03:52.238Z,101514.59
2023-02-17T08:06:23.928Z,101504.28
2023-02-17T08:09:10.163Z,101510.91
2023-02-17T08:11:55.641Z,101497.53
2023-02-17T08:14:24.185Z,101504.50
2023-02-17T08:16:50.859Z,101503.16
2023-02-17T08:19:17.380Z,101507.22
2023-02-17T08:21:44.033Z,101503.91
2023-02-17T08:24:10.669Z,101524.63
2023-02-17T08:26:37.230Z,101516.69
2023-02-17T08:29:03.954Z,101528.44
2023-02-17T08:31:33.590Z,101518.47
2023-02-17T08:34:01.612Z,101529.38
2023-02-17T08:36:29.216Z,101524.63
2023-02-17T08:38:56.638Z,101526.63
2023-02-17T08:41:28.969Z,101527.06
2023-02-17T08:43:56.904Z,101527.66
2023-02-17T08:46:23.498Z,101526.69
2023-02-17T08:48:50.039Z,101525.34
2023-02-17T08:51:25.687Z,101510.72
2023-02-17T08:53:58.052Z,101511.06
2023-02-17T08:56:26.076Z,101507.91
2023-02-17T08:58:52.864Z,101504.31
2023-02-17T09:01:20.540Z,101494.84
2023-02-17T09:03:48.848Z,101506.69
2023-02-17T09:06:15.798Z,101501.03
2023-02-17T09:08:44.581Z,101498.47
2023-02-17T09:11:11.455Z,101500.78
2023-02-17T09:13:38.553Z,101502.56
2023-02-17T09:16:05.659Z,101498.81
2023-02-17T09:18:32.245Z,101499.47
2023-02-17T09:21:00.493Z,101503.34
2023-02-17T09:23:27.017Z,101501.59
2023-02-17T09:26:13.745Z,101505.25
2023-02-17T09:28:40.865Z,101503.91
2023-02-17T09:31:22.535Z,101499.41
2023-02-17T09:33:50.222Z,101504.47
2023-02-17T09:36:20.276Z,101498.34
2023-02-17T09:38:47.650Z,101488.41
2023-02-17T09:41:27.875Z,101489.53
2023-02-17T09:43:55.428Z,101496.06
2023-02-17T09:46:31.964Z,101491.84
2023-02-17T09:49:08.005Z,101487.50
2023-02-17T09:52:19.507Z,101497.09
2023-02-17T09:55:04.230Z,101500.53
2023-02-17T09:57:37.020Z,101505.97
2023-02-17T10:00:15.598Z,101508.00
2023-02-17T10:02:52.846Z,101517.41
2023-02-17T10:05:24.097Z,101510.16
2023-02-17T10:07:57.505Z,101522.84
2023-02-17T10:10:28.622Z,101514.78
2023-02-17T10:12:58.121Z,101518.91
2023-02-17T10:15:29.819Z,101516.72
2023-02-17T10:18:00.498Z,101522.88
2023-02-17T10:20:34.146Z,101520.22
2023-02-17T10:23:22.338Z,101512.66
2023-02-17T10:26:13.995Z,101516.56
2023-02-17T10:29:05.317Z,101521.81
2023-02-17T10:31:43.213Z,101523.75
2023-02-17T10:34:17.731Z,101521.06
2023-02-17T10:37:12.328Z,101510.63
2023-02-17T10:39:48.917Z,101511.97
2023-02-17T10:42:38.137Z,101513.91
2023-02-17T10:45:06.706Z,101509.03
2023-02-17T10:47:36.641Z,101509.34
2023-02-17T10:50:05.655Z,101501.97
2023-02-17T10:52:40.970Z,101511.31
2023-02-17T10:55:35.429Z,101515.72
2023-02-17T10:58:12.041Z,101508.31
2023-02-17T11:00:38.424Z,101507.56
2023-02-17T11:03:04.968Z,101514.63
2023-02-17T11:05:34.698Z,101523.34
2023-02-17T11:08:28.458Z,101516.81
2023-02-17T11:11:07.948Z,101516.75
2023-02-17T11:13:38.083Z,101517.81
2023-02-17T11:16:06.095Z,101505.75
2023-02-17T11:18:37.865Z,101497.47
2023-02-17T11:21:11.305Z,101498.53
2023-02-17T11:23:51.235Z,101482.34
2023-02-17T11:26:23.200Z,101495.78
2023-02-17T11:28:49.690Z,101479.34
2023-02-17T11:31:42.854Z,101482.66
2023-02-17T11:34:21.549Z,101479.34
2023-02-17T11:37:02.259Z,101491.94
2023-02-17T11:39:29.389Z,101482.66
2023-02-17T11:41:55.768Z,101488.44
2023-02-17T11:44:24.744Z,101478.91
2023-02-17T11:47:12.806Z,101480.50
2023-02-17T11:50:04.661Z,101459.13
2023-02-17T11:52:46.716Z,101455.06
2023-02-17T11:55:37.274Z,101467.94
2023-02-17T11:58:23.387Z,101442.78
2023-02-17T12:01:18.950Z,101450.75
2023-02-17T12:04:07.405Z,101442.81
2023-02-17T12:06:49.803Z,101446.97
2023-02-17T12:09:41.246Z,101449.72
2023-02-17T12:12:35.080Z,101454.94
2023-02-17T12:15:38.190Z,101450.56
2023-02-17T12:18:27.662Z,101461.50
2023-02-17T12:21:14.257Z,101467.78
2023-02-17T12:24:02.303Z,101466.47
2023-02-17T12:26:44.912Z,101451.97
2023-02-17T12:29:34.322Z,101443.50
2023-02-17T12:32:09.198Z,101447.59
2023-02-17T12:34:53.723Z,101443.75
2023-02-17T12:37:27.337Z,101450.38
2023-02-17T12:39:59.604Z,101445.47
2023-02-17T12:42:47.349Z,101440.31
2023-02-17T12:45:13.698Z,101427.16
2023-02-17T12:48:04.603Z,101432.34
2023-02-17T12:50:38.648Z,101427.13
2023-02-17T12:53:12.498Z,101438.59
2023-02-17T12:55:53.072Z,101427.09
2023-02-17T12:58:26.556Z,101420.00
2023-02-17T13:01:06.802Z,101411.78
2023-02-17T13:03:35.962Z,101400.25
2023-02-17T13:06:28.682Z,101401.34
2023-02-17T13:09:29.348Z,101404.91
2023-02-17T13:12:30.442Z,101392.28
2023-02-17T13:15:02.955Z,101379.41
2023-02-17T13:17:51.658Z,101393.66
2023-02-17T13:20:18.057Z,101398.06
2023-02-17T13:22:45.641Z,101403.53
2023-02-17T13:25:37.263Z,101407.94
2023-02-17T13:28:34.100Z,101384.34
2023-02-17T13:31:10.791Z,101393.38
2023-02-17T13:33:44.188Z,101404.09
2023-02-17T13:36:20.699Z,101386.56
2023-02-17T13:39:31.044Z,101393.94
2023-02-17T13:41:59.762Z,101413.16
2023-02-17T13:44:41.953Z,101418.38
2023-02-17T13:47:18.158Z,101419.47
2023-02-17T13:49:56.763Z,101430.97
2023-02-17T13:52:29.689Z,101426.03
2023-02-17T13:55:05.311Z,101419.97
2023-02-17T13:57:34.867Z,101413.34
2023-02-17T14:00:24.821Z,101430.34
2023-02-17T14:03:22.670Z,101423.47
2023-02-17T14:05:51.474Z,101424.00
2023-02-17T14:08:32.331Z,101424.28
2023-02-17T14:11:06.318Z,101417.13
2023-02-17T14:13:34.081Z,101427.28
2023-02-17T14:16:00.893Z,101415.47
2023-02-17T14:18:32.312Z,101426.69
2023-02-17T14:21:06.286Z,101441.25
2023-02-17T14:23:49.080Z,101453.81
2023-02-17T14:26:47.355Z,101474.63
2023-02-17T14:29:15.283Z,101453.78
2023-02-17T14:31:47.656Z,101455.38
2023-02-17T14:34:26.411Z,101467.38
2023-02-17T14:36:52.883Z,101484.66
2023-02-17T14:39:19.321Z,101458.34
2023-02-17T14:41:45.772Z,101476.16
2023-02-17T14:44:12.269Z,101478.91
2023-02-17T14:46:39.718Z,101475.88
2023-02-17T14:49:06.182Z,101476.72
2023-02-17T14:51:36.868Z,101466.88
2023-02-17T14:54:12.552Z,101469.56
2023-02-17T14:56:44.459Z,101479.72
2023-02-17T14:59:10.952Z,101481.03
2023-02-17T15:01:37.518Z,101472.81
2023-02-17T15:04:04.035Z,101475.56
2023-02-17T15:06:39.085Z,101479.91
2023-02-17T15:09:09.764Z,101484.78
2023-02-17T15:11:37.385Z,101483.72
2023-02-17T15:14:04.606Z,101493.53
2023-02-17T15:16:31.059Z,101495.72
2023-02-17T15:18:58.063Z,101497.91
2023-02-17T15:21:33.658Z,101497.25
2023-02-17T15:24:01.764Z,101504.91
2023-02-17T15:26:32.956Z,101505.72
2023-02-17T15:28:59.940Z,101505.72
2023-02-17T15:31:29.901Z,101513.63
2023-02-17T15:33:58.297Z,101517.69
2023-02-17T15:36:25.620Z,101514.09
2023-02-17T15:38:52.205Z,101515.16
2023-02-17T15:41:25.517Z,101528.53
2023-02-17T15:43:54.428Z,101526.91
2023-02-17T15:46:25.279Z,101516.94
2023-02-17T15:48:52.382Z,101534.16
2023-02-17T15:51:19.753Z,101530.28
2023-02-17T15:53:47.723Z,101530.16
2023-02-17T15:56:29.888Z,101536.66
2023-02-17T15:58:58.029Z,101541.00
2023-02-17T16:01:34.890Z,101541.00
2023-02-17T16:04:01.408Z,101561.25
2023-02-17T16:06:28.920Z,101567.75
2023-02-17T16:08:58.342Z,101587.13
2023-02-17T16:11:25.461Z,101569.25
2023-02-17T16:13:52.095Z,101577.41
2023-02-17T16:16:22.554Z,101578.97
2023-02-17T16:18:50.358Z,101583.84
2023-02-17T16:21:16.958Z,101593.91
2023-02-17T16:23:43.809Z,101579.44
2023-02-17T16:26:33.634Z,101606.19
2023-02-17T16:29:02.115Z,101602.81
2023-02-17T16:31:32.305Z,101614.91
2023-02-17T16:34:00.440Z,101609.88
2023-02-17T16:36:31.881Z,101621.06
2023-02-17T16:39:00.555Z,101633.97
2023-02-17T16:41:26.946Z,101639.03
2023-02-17T16:43:53.324Z,101638.94
2023-02-17T16:46:25.361Z,101645.06
2023-02-17T16:48:51.781Z,101646.41
2023-02-17T16:51:18.146Z,101649.91
2023-02-17T16:53:44.548Z,101660.13
2023-02-17T16:56:17.808Z,101663.88
2023-02-17T16:58:44.730Z,101657.66
2023-02-17T17:01:12.561Z,101668.97
2023-02-17T17:03:41.000Z,101678.47
2023-02-17T17:06:20.347Z,101674.34
2023-02-17T17:08:47.228Z,101661.75
2023-02-17T17:11:18.940Z,101652.84
2023-02-17T17:13:45.860Z,101655.56
2023-02-17T17:16:20.647Z,101652.16
2023-02-17T17:18:48.050Z,101672.34
2023-02-17T17:21:17.570Z,101670.19
2023-02-17T17:23:46.253Z,101663.66
2023-02-17T17:26:20.740Z,101674.00
2023-02-17T17:28:49.087Z,101681.13
2023-02-17T17:31:16.074Z,101690.38
2023-02-17T17:33:42.756Z,101681.94
2023-02-17T17:36:19.452Z,101690.94
2023-02-17T17:38:46.047Z,101692.28
2023-02-17T17:41:13.400Z,101692.50
2023-02-17T17:43:41.172Z,101701.78
2023-02-17T17:46:20.284Z,101719.22
2023-02-17T17:48:47.498Z,101714.34
2023-02-17T17:51:16.334Z,101711.03
2023-02-17T17:53:43.531Z,101720.78
2023-02-17T17:56:22.730Z,101721.38
2023-02-17T17:58:49.563Z,101714.84
2023-02-17T18:01:16.241Z,101711.50
2023-02-17T18:03:43.323Z,101716.50
2023-02-17T18:06:16.012Z,101722.78
2023-02-17T18:08:44.930Z,101724.69
2023-02-17T18:11:14.403Z,101726.34
2023-02-17T18:13:41.557Z,101736.06
2023-02-17T18:16:08.434Z,101737.63
2023-02-17T18:18:35.844Z,101741.31
2023-02-17T18:21:02.529Z,101736.47
2023-02-17T18:23:28.916Z,101746.78
2023-02-17T18:25:55.296Z,101744.91
2023-02-17T18:28:21.780Z,101745.97
2023-02-17T18:30:48.212Z,101754.97
2023-02-17T18:33:14.839Z,101765.31
2023-02-17T18:35:43.642Z,101764.47
2023-02-17T18:38:10.195Z,101771.25
2023-02-17T18:40:41.026Z,101768.03
2023-02-17T18:43:08.636Z,101770.28
2023-02-17T18:45:35.540Z,101759.84
2023-02-17T18:48:02.142Z,101766.03
2023-02-17T18:50:33.016Z,101777.69
2023-02-17T18:53:00.124Z,101769.97
2023-02-17T18:55:26.727Z,101782.53
2023-02-17T18:57:53.999Z,101785.28
2023-02-17T19:00:20.589Z,101780.88
2023-02-17T19:02:47.281Z,101786.78
2023-02-17T19:05:13.827Z,101794.75
2023-02-17T19:07:40.303Z,101795.25
2023-02-17T19:10:07.353Z,101795.34
2023-02-17T19:12:34.258Z,101806.97
2023-02-17T19:15:00.756Z,101811.34
2023-02-17T19:17:27.222Z,101810.06
2023-02-17T19:19:53.606Z,101814.66
2023-02-17T19:22:20.195Z,101818.00
2023-02-17T19:24:51.350Z,101815.03
2023-02-17T19:27:17.994Z,101822.75
2023-02-17T19:29:44.408Z,101828.66
2023-02-17T19:32:10.825Z,101815.03
2023-02-17T19:34:38.614Z,101832.47
2023-02-17T19:37:05.350Z,101832.13
2023-02-17T19:39:31.969Z,101823.69
2023-02-17T19:41:58.344Z,101821.66
2023-02-17T19:44:24.701Z,101826.31
2023-02-17T19:46:51.234Z,101820.47
2023-02-17T19:49:17.637Z,101831.84
2023-02-17T19:51:44.324Z,101833.16
2023-02-17T19:54:10.713Z,101830.19
2023-02-17T19:56:38.971Z,101836.72
2023-02-17T19:59:05.482Z,101832.31
2023-02-17T20:01:32.822Z,101845.97
2023-02-17T20:04:01.598Z,101845.84
2023-02-17T20:06:31.037Z,101843.47
2023-02-17T20:09:04.319Z,101840.63
2023-02-17T20:11:31.939Z,101844.78
2023-02-17T20:13:59.958Z,101845.97
2023-02-17T20:16:27.367Z,101854.50
2023-02-17T20:18:55.478Z,101860.53
2023-02-17T20:21:24.909Z,101849.41
2023-02-17T20:23:52.463Z,101843.94
2023-02-17T20:26:22.442Z,101847.03
2023-02-17T20:28:50.134Z,101847.84
2023-02-17T20:31:16.922Z,101839.66
2023-02-17T20:33:44.372Z,101851.03
2023-02-17T20:36:11.788Z,101847.50
2023-02-17T20:38:39.594Z,101857.09
2023-02-17T20:41:08.359Z,101873.09
2023-02-17T20:43:36.390Z,101862.66
2023-02-17T20:46:02.984Z,101858.75
2023-02-17T20:48:29.416Z,101864.34
2023-02-17T20:50:56.868Z,101854.03
2023-02-17T20:53:23.865Z,101856.75
2023-02-17T20:55:50.974Z,101859.22
2023-02-17T20:58:18.071Z,101858.88
2023-02-17T21:00:44.870Z,101863.84
2023-02-17T21:03:11.452Z,101866.72
2023-02-17T21:05:38.033Z,101871.34
2023-02-17T21:08:04.964Z,101869.53
2023-02-17T21:10:32.726Z,101876.28
2023-02-17T21:12:59.469Z,101870.72
2023-02-17T21:15:27.453Z,101875.22
2023-02-17T21:17:54.171Z,101865.28
2023-02-17T21:20:22.093Z,101872.00
2023-02-17T21:22:49.280Z,101879.94
2023-02-17T21:25:15.849Z,101871.63
2023-02-17T21:27:42.272Z,101870.00
2023-02-17T21:30:10.228Z,101871.63
2023-02-17T21:32:37.089Z,101875.06
2023-02-17T21:35:03.766Z,101883.03
2023-02-17T21:37:30.150Z,101881.94
2023-02-17T21:39:56.879Z,101872.13
2023-02-17T21:42:44.661Z,101870.44
2023-02-17T21:45:12.122Z,101864.63
2023-02-17T21:47:38.496Z,101876.38
2023-02-17T21:50:05.514Z,101870.44
2023-02-17T21:52:32.017Z,101873.66
2023-02-17T21:54:58.376Z,101873.66
2023-02-17T21:57:24.726Z,101872.19
2023-02-17T21:59:51.160Z,101871.53
2023-02-17T22:02:17.827Z,101877.66
2023-02-17T22:04:44.261Z,101878.50
2023-02-17T22:07:11.676Z,101871.00
2023-02-17T22:09:38.064Z,101859.75
2023-02-17T22:12:04.630Z,101867.94
2023-02-17T22:14:31.056Z,101866.03
2023-02-17T22:16:57.519Z,101874.66
2023-02-17T22:19:24.826Z,101875.25
2023-02-17T22:21:52.000Z,101872.09
2023-02-17T22:24:20.655Z,101880.50
2023-02-17T22:26:48.633Z,101876.56
2023-02-17T22:29:15.138Z,101877.50
2023-02-17T22:31:41.661Z,101859.97
2023-02-17T22:34:10.006Z,101867.44
2023-02-17T22:36:36.924Z,101866.59
2023-02-17T22:39:05.747Z,101870.16
2023-02-17T22:41:33.325Z,101859.72
2023-02-17T22:44:00.882Z,101862.91
2023-02-17T22:46:27.856Z,101861.59
2023-02-17T22:48:56.081Z,101856.53
2023-02-17T22:51:28.701Z,101854.72
2023-02-17T22:53:55.649Z,101849.06
2023-02-17T22:56:23.014Z,101865.41
2023-02-17T22:58:55.287Z,101854.88
2023-02-17T23:01:22.388Z,101846.94
2023-02-17T23:03:53.906Z,101844.44
2023-02-17T23:06:26.527Z,101844.81
2023-02-17T23:08:54.035Z,101844.31
2023-02-17T23:11:43.750Z,101842.69
2023-02-17T23:14:12.048Z,101838.16
2023-02-17T23:16:38.729Z,101846.94
2023-02-17T23:19:10.662Z,101846.22
2023-02-17T23:21:38.088Z,101835.81
2023-02-17T23:24:04.966Z,101840.41
2023-02-17T23:26:31.545Z,101837.09
2023-02-17T23:28:59.437Z,101839.81
2023-02-17T23:31:25.942Z,101848.59
2023-02-17T23:33:52.345Z,101836.84
2023-02-17T23:36:18.872Z,101853.91
2023-02-17T23:38:45.267Z,101850.00
2023-02-17T23:41:11.928Z,101851.88
2023-02-17T23:43:38.283Z,101842.41
2023-02-17T23:46:05.033Z,101837.34
2023-02-17T23:48:31.507Z,101839.81
2023-02-17T23:50:59.790Z,101837.34
2023-02-17T23:53:26.757Z,101845.50
2023-02-17T23:56:04.113Z,101846.56
2023-02-17T23:58:30.804Z,101840.66
